LEGR Airport Information

Runway Information
Runway 09 Length 9514 ft width 148 ft
Elevation 1842 ft Threshold 0 ft Heading 90
Runway 27 Length 9514 ft Width 148 ft
Elevation 1860 ft Threshold 0 ft Heading 270
Airport Frequencies
Type GND Name GND Frequency 121.7 MHZ
Type TWR Name TWR Frequency 118.85 MHZ
Airport Navaids
Type VOR-DME Name Granada Frequency 113400 KHZ
Airport Weather Information & NOTAM
ADDS - METARS form results

(1914 UTC 25 June 2018)
 
METAR text: LEGR 251900Z 27008KT 240V300 CAVOK 31/14 Q1016
Conditions at: LEGR (GRANADA AIRPORT , ES) observed 1900 UTC 25 June 2018
Temperature: 31.0°C (88°F)
Dewpoint: 14.0°C (57°F) [RH = 36%]
Pressure (altimeter): 30.00 inches Hg (1016.0 mb)
Winds: from the W (270 degrees) at 9 MPH (8 knots; 4.2 m/s)
Visibility: 6 or more miles (10+ km)
Ceiling: ceiling and visibility are OK
Clouds: unknown
Weather: no significant weather observed at this time

METAR text: LEGR 251830Z 28011KT 250V320 9999 FEW070 31/15 Q1016
Conditions at: LEGR (GRANADA AIRPORT , ES) observed 1830 UTC 25 June 2018
Temperature: 31.0°C (88°F)
Dewpoint: 15.0°C (59°F) [RH = 38%]
Pressure (altimeter): 30.00 inches Hg (1016.0 mb)
Winds: from the W (280 degrees) at 13 MPH (11 knots; 5.7 m/s)
Visibility: 6 or more miles (10+ km)
Ceiling: at least 12,000 feet AGL
Clouds: few clouds at 7000 feet AGL
Weather: no significant weather observed at this time